Terminal Aerodrome Forecast
Issued by NWS Corpus Christi, TX

Home | Current Version | Previous Version | Text Only | Print | Product List | Glossary On
Versions: 1 2 3 4 5 6 7 8 9 10 11 12 13 14 15 16 17 18 19 20 21 22 23 24
000
FTUS44 KCRP 160527
TAFVCT
TAF
KVCT 160527Z 1606/1706 15016KT P6SM BKN015
     FM160800 15009KT 5SM BR VCSH SCT007 BKN012 WS020/16040KT
      TEMPO 1612/1616 -SHRA BKN008 BKN015
     FM161600 16013KT P6SM VCSH BKN025
      TEMPO 1616/1620 -SHRA BKN015
     FM170200 14006KT 5SM BR BKN010=

USA.gov is the U.S. government's official web portal to all federal, state and local government web resources and services.